Anchorage, AK

5:48 PM AKST on March 06, 2015 (GMT -0900)
Anchorage | Change Station
CLOSE
Current Station
Airport
Location: Anchorage,
Elevation: 144 ft
Nearby Weather Stations
Active Advisory: Winter Weather Advisory Active Notice: Record Report

Elev 144 ft 61.17 °N, 150.03 °W | Updated 55 minutes ago

Overcast
Overcast
37 °F
Feels Like 34 °F
N
4
Wind Variable Wind from East

Today
High -- | Low -- °F
--% Chance of Precip.
Yesterday
High -- | Low -- °F
Precip. -- in
7:44 AM 6:37 PM
Full, 98% visible
Pressure 30.11 in
Visibility 10.0 miles
Clouds Few 3400 ft
Scattered Clouds 7000 ft
Overcast 13000 ft
Windchill 34 °F
Dew Point 29 °F
Humidity 73%
Rainfall 0.05 in
Snow Depth Not available.
UV 0 out of 12
Pollen Not available.
Air Quality Not available.
Flu Activity Not available.
METAR PANC 070153Z 10003KT 10SM FEW034 SCT070 OVC130 03/M02 A3010 RMK AO2 SLP196 T00281017

More Conditions Fewer Conditions

Pressure 30.11 in
Visibility 10.0 miles
Clouds Few 3400 ft
Scattered Clouds 7000 ft
Overcast 13000 ft
Windchill 34 °F
Dew Point 29 °F
Humidity 73%
Rainfall 0.05 in
Snow Depth Not available.
UV 0 out of 12
Pollen Not available.
Air Quality Not available.
Flu Activity Not available.
METAR PANC 070153Z 10003KT 10SM FEW034 SCT070 OVC130 03/M02 A3010 RMK AO2 SLP196 T00281017

More Conditions Fewer Conditions

10-Day Weather Forecast

Almanac

Astronomy

Mar. 06, 2015 Rise Set
Actual Time
Civil Twilight
Nautical Twilight
Astronomical Twilight
Moon
Length of Visible Light
Length of Day
Tomorrow will be .
, % of the Moon is Illuminated

Today's Extremes

State Highs State Lows

Community

WunderPhotos

Upload Photos

1,803,501 photos uploaded!

WunderBlogs® & News

Nearby

Air Quality

  Air Quality AQ Index Pollutant
Not available.

Snow Depth

Station Depth Elevation

Earthquake Activity

City Distance Mag. Time & Date
Minimum magnitude displayed is 2.5.

Coastal Water Temperatures

Place Temperature

Nearby Weather Stations

Winter Weather Advisory
Statement as of 3:20 PM AKST on March 06, 2015

... Winter Weather Advisory for snow remains in effect from 6 PM
this evening to noon akst Saturday along the hillside...

* location... along the Anchorage hillside and higher elevations
of Eagle River.

* Snow... 4 to 9 inches.

* Timing... snow will develop this evening and become heavy
overnight. Snow will taper off Saturday morning. The heaviest
snow accumulation is expected along the Upper Hillside.

* Impacts... travel may be difficult. Visibilities will be
limited in heavy snowfall.

Precautionary/preparedness actions...

A Winter Weather Advisory for snow means that periods of snow
will cause primarily travel difficulties. Be prepared for snow
covered roads and limited visibilities... and use caution while
driving.